createdAt,value
2016-12-12T00:00:12.843Z,63.62
2016-12-12T00:01:12.917Z,63.62
2016-12-12T00:02:12.062Z,63.60
2016-12-12T00:03:13.677Z,63.50
2016-12-12T00:04:11.460Z,62.74
2016-12-12T00:05:13.207Z,62.58
2016-12-12T00:06:16.731Z,62.62
2016-12-12T00:07:13.549Z,62.66
2016-12-12T00:08:13.320Z,63.31
2016-12-12T00:09:13.034Z,63.43
2016-12-12T00:10:13.814Z,63.47
2016-12-12T00:11:13.345Z,63.50
2016-12-12T00:12:12.753Z,63.51
2016-12-12T00:13:13.254Z,63.52
2016-12-12T00:14:12.361Z,63.53
2016-12-12T00:15:13.574Z,63.53
2016-12-12T00:16:13.740Z,63.54
2016-12-12T00:17:13.360Z,63.52
2016-12-12T00:18:12.952Z,63.53
2016-12-12T00:19:11.007Z,63.53
2016-12-12T00:20:13.051Z,63.53
2016-12-12T00:21:13.596Z,63.53
2016-12-12T00:22:12.555Z,63.51
2016-12-12T00:23:14.225Z,63.51
2016-12-12T00:24:12.325Z,63.51
2016-12-12T00:25:13.649Z,63.52
2016-12-12T00:26:12.675Z,63.53
2016-12-12T00:27:12.810Z,63.52
2016-12-12T00:28:12.875Z,63.51
2016-12-12T00:29:13.535Z,63.51
2016-12-12T00:30:12.798Z,63.36
2016-12-12T00:31:14.313Z,62.60
2016-12-12T00:32:13.166Z,62.81
2016-12-12T00:33:12.193Z,63.27
2016-12-12T00:34:12.816Z,63.38
2016-12-12T00:35:14.200Z,63.42
2016-12-12T00:36:12.806Z,63.46
2016-12-12T00:37:13.823Z,63.47
2016-12-12T00:38:12.917Z,63.46
2016-12-12T00:39:13.778Z,63.47
2016-12-12T00:40:13.494Z,63.47
2016-12-12T00:41:10.142Z,63.48
2016-12-12T00:42:12.423Z,63.47
2016-12-12T00:43:12.436Z,63.46
2016-12-12T00:44:10.615Z,63.48
2016-12-12T00:45:12.680Z,62.58
2016-12-12T00:46:13.205Z,62.70
2016-12-12T00:47:18.938Z,63.25
2016-12-12T00:48:12.119Z,63.36
2016-12-12T00:49:13.792Z,63.41
2016-12-12T00:50:13.443Z,63.44
2016-12-12T00:51:11.246Z,63.56
2016-12-12T00:52:12.302Z,63.44
2016-12-12T00:53:10.887Z,63.45
2016-12-12T00:54:12.769Z,63.45
2016-12-12T00:55:10.313Z,63.47
2016-12-12T00:56:11.394Z,63.46
2016-12-12T00:57:11.151Z,62.60
2016-12-12T00:58:12.873Z,62.45
2016-12-12T00:59:15.946Z,62.42
2016-12-12T01:00:13.201Z,63.18
2016-12-12T01:01:14.004Z,63.34
2016-12-12T01:02:13.985Z,63.42
2016-12-12T01:03:11.927Z,63.42
2016-12-12T01:04:13.390Z,63.46
2016-12-12T01:05:10.849Z,63.46
2016-12-12T01:06:14.672Z,63.45
2016-12-12T01:07:14.224Z,63.47
2016-12-12T01:08:12.405Z,63.47
2016-12-12T01:09:14.503Z,63.48
2016-12-12T01:10:14.319Z,63.49
2016-12-12T01:11:14.049Z,63.50
2016-12-12T01:12:13.128Z,63.49
2016-12-12T01:13:12.608Z,63.47
2016-12-12T01:14:11.605Z,63.49
2016-12-12T01:15:17.074Z,63.48
2016-12-12T01:16:14.207Z,63.47
2016-12-12T01:17:12.985Z,63.49
2016-12-12T01:18:13.948Z,63.50
2016-12-12T01:19:14.109Z,63.51
2016-12-12T01:20:13.415Z,63.52
2016-12-12T01:21:14.039Z,63.52
2016-12-12T01:22:12.009Z,63.54
2016-12-12T01:23:13.718Z,63.54
2016-12-12T01:24:13.972Z,63.52
2016-12-12T01:25:12.107Z,63.52
2016-12-12T01:26:18.319Z,63.52
2016-12-12T01:27:13.409Z,63.51
2016-12-12T01:28:15.359Z,63.53
2016-12-12T01:29:14.678Z,63.54
2016-12-12T01:30:11.781Z,63.54
2016-12-12T01:31:11.711Z,63.55
2016-12-12T01:32:13.008Z,62.66
2016-12-12T01:33:13.775Z,62.52
2016-12-12T01:34:13.527Z,62.46
2016-12-12T01:35:14.102Z,62.45
2016-12-12T01:36:12.637Z,63.26
2016-12-12T01:37:13.297Z,63.41
2016-12-12T01:38:10.619Z,63.48
2016-12-12T01:39:14.202Z,63.37
2016-12-12T01:40:12.828Z,62.88
2016-12-12T01:41:15.703Z,63.36
2016-12-12T01:42:13.857Z,63.45
2016-12-12T01:43:13.465Z,63.47
2016-12-12T01:44:13.027Z,63.52
2016-12-12T01:45:13.319Z,63.53
2016-12-12T01:46:12.855Z,63.52
2016-12-12T01:47:13.693Z,63.53
2016-12-12T01:48:14.413Z,63.55
2016-12-12T01:49:13.415Z,63.56
2016-12-12T01:50:14.183Z,63.56
2016-12-12T01:51:15.106Z,63.55
2016-12-12T01:52:13.279Z,63.56
2016-12-12T01:53:13.723Z,63.54
2016-12-12T01:54:12.004Z,63.55
2016-12-12T01:55:12.489Z,63.54
2016-12-12T01:56:12.485Z,63.53
2016-12-12T01:57:12.639Z,63.55
2016-12-12T01:58:15.331Z,63.54
2016-12-12T01:59:13.340Z,63.55
2016-12-12T02:00:15.699Z,63.54
2016-12-12T02:01:11.031Z,63.55
2016-12-12T02:02:13.500Z,63.55
2016-12-12T02:03:14.110Z,63.56
2016-12-12T02:04:13.368Z,63.55
2016-12-12T02:05:13.558Z,63.53
2016-12-12T02:06:10.815Z,63.55
2016-12-12T02:07:11.529Z,63.55
2016-12-12T02:08:13.156Z,63.53
2016-12-12T02:09:13.218Z,63.53
2016-12-12T02:10:11.364Z,63.53
2016-12-12T02:11:12.050Z,63.38
2016-12-12T02:12:14.280Z,62.64
2016-12-12T02:13:12.803Z,62.62
2016-12-12T02:14:15.078Z,63.29
2016-12-12T02:15:13.511Z,63.40
2016-12-12T02:16:13.107Z,63.46
2016-12-12T02:17:12.296Z,63.49
2016-12-12T02:18:12.376Z,63.49
2016-12-12T02:19:12.934Z,63.48
2016-12-12T02:20:12.834Z,63.50
2016-12-12T02:21:13.478Z,63.49
2016-12-12T02:22:13.024Z,63.51
2016-12-12T02:23:13.817Z,63.47
2016-12-12T02:24:14.219Z,63.48
2016-12-12T02:25:12.620Z,63.49
2016-12-12T02:26:12.032Z,63.36
2016-12-12T02:27:13.197Z,62.60
2016-12-12T02:28:12.350Z,63.31
2016-12-12T02:29:14.110Z,63.41
2016-12-12T02:30:12.971Z,63.44
2016-12-12T02:31:12.978Z,63.45
2016-12-12T02:32:13.625Z,63.49
2016-12-12T02:33:13.345Z,63.46
2016-12-12T02:34:11.539Z,63.48
2016-12-12T02:35:11.675Z,63.46
2016-12-12T02:36:12.420Z,62.60
2016-12-12T02:37:12.425Z,62.45
2016-12-12T02:38:11.577Z,62.37
2016-12-12T02:39:12.910Z,62.31
2016-12-12T02:40:14.186Z,62.31
2016-12-12T02:41:14.064Z,62.30
2016-12-12T02:42:14.294Z,62.28
2016-12-12T02:43:13.508Z,62.28
2016-12-12T02:44:12.052Z,62.43
2016-12-12T02:45:13.705Z,63.15
2016-12-12T02:46:13.368Z,63.29
2016-12-12T02:47:12.793Z,63.34
2016-12-12T02:48:13.139Z,63.39
2016-12-12T02:49:12.666Z,63.39
2016-12-12T02:50:12.738Z,63.41
2016-12-12T02:51:13.760Z,63.41
2016-12-12T02:52:13.760Z,63.42
2016-12-12T02:53:14.188Z,63.29
2016-12-12T02:54:12.891Z,62.75
2016-12-12T02:55:12.890Z,63.28
2016-12-12T02:56:13.989Z,63.37
2016-12-12T02:57:12.609Z,63.40
2016-12-12T02:58:13.161Z,63.41
2016-12-12T02:59:13.044Z,63.42
2016-12-12T03:00:12.156Z,63.43
2016-12-12T03:01:12.389Z,63.43
2016-12-12T03:02:12.442Z,63.44
2016-12-12T03:03:13.017Z,63.45
2016-12-12T03:04:12.679Z,63.46
2016-12-12T03:05:12.872Z,63.46
2016-12-12T03:06:13.645Z,63.46
2016-12-12T03:07:14.244Z,63.46
2016-12-12T03:08:13.836Z,63.45
2016-12-12T03:09:14.871Z,63.45
2016-12-12T03:10:13.627Z,63.46
2016-12-12T03:11:13.217Z,63.45
2016-12-12T03:12:13.818Z,63.46
2016-12-12T03:13:12.962Z,63.47
2016-12-12T03:14:12.191Z,63.49
2016-12-12T03:15:09.654Z,63.48
2016-12-12T03:16:14.051Z,63.47
2016-12-12T03:17:12.913Z,63.46
2016-12-12T03:18:13.978Z,63.47
2016-12-12T03:19:11.944Z,63.48
2016-12-12T03:20:12.990Z,63.50
2016-12-12T03:21:12.700Z,62.61
2016-12-12T03:22:13.401Z,63.30
2016-12-12T03:23:13.284Z,63.40
2016-12-12T03:24:12.399Z,63.44
2016-12-12T03:25:12.841Z,63.45
2016-12-12T03:26:14.767Z,63.47
2016-12-12T03:27:13.296Z,63.46
2016-12-12T03:28:12.388Z,63.47
2016-12-12T03:29:10.715Z,63.49
2016-12-12T03:30:14.577Z,63.50
2016-12-12T03:31:13.128Z,63.47
2016-12-12T03:32:12.240Z,63.47
2016-12-12T03:33:13.575Z,63.48
2016-12-12T03:34:13.112Z,63.48
2016-12-12T03:35:12.178Z,63.49
2016-12-12T03:36:12.887Z,63.46
2016-12-12T03:37:14.340Z,63.48
2016-12-12T03:38:10.571Z,63.47
2016-12-12T03:39:11.011Z,63.45
2016-12-12T03:40:14.094Z,63.47
2016-12-12T03:41:10.953Z,63.45
2016-12-12T03:42:13.762Z,62.59
2016-12-12T03:43:12.664Z,62.43
2016-12-12T03:44:13.465Z,62.60
2016-12-12T03:45:13.062Z,63.23
2016-12-12T03:46:12.952Z,63.34
2016-12-12T03:47:12.182Z,63.41
2016-12-12T03:48:13.886Z,63.42
2016-12-12T03:49:13.725Z,63.43
2016-12-12T03:50:13.214Z,63.44
2016-12-12T03:51:12.766Z,63.45
2016-12-12T03:52:13.443Z,63.46
2016-12-12T03:53:13.574Z,63.42
2016-12-12T03:54:13.130Z,62.72
2016-12-12T03:55:12.752Z,63.30
2016-12-12T03:56:12.837Z,63.39
2016-12-12T03:57:12.859Z,63.42
2016-12-12T03:58:13.629Z,63.45
2016-12-12T03:59:14.232Z,63.48
2016-12-12T04:00:13.950Z,63.46
2016-12-12T04:01:12.542Z,63.45
2016-12-12T04:02:10.850Z,63.47
2016-12-12T04:03:12.829Z,63.46
2016-12-12T04:04:13.357Z,63.47
2016-12-12T04:05:10.691Z,63.49
2016-12-12T04:06:12.806Z,63.48
2016-12-12T04:07:13.959Z,63.47
2016-12-12T04:08:09.765Z,63.49
2016-12-12T04:09:12.706Z,63.47
2016-12-12T04:10:14.707Z,63.49
2016-12-12T04:11:12.689Z,63.48
2016-12-12T04:12:13.059Z,63.45
2016-12-12T04:13:12.160Z,63.47
2016-12-12T04:14:13.160Z,63.47
2016-12-12T04:15:13.030Z,63.45
2016-12-12T04:16:12.657Z,63.47
2016-12-12T04:17:18.905Z,63.47
2016-12-12T04:18:13.654Z,63.46
2016-12-12T04:19:13.529Z,63.46
2016-12-12T04:20:18.200Z,63.47
2016-12-12T04:21:14.127Z,63.46
2016-12-12T04:22:12.199Z,63.46
2016-12-12T04:23:12.694Z,63.47
2016-12-12T04:24:13.305Z,63.47
2016-12-12T04:25:11.091Z,63.47
2016-12-12T04:26:12.754Z,62.80
2016-12-12T04:27:12.896Z,63.30
2016-12-12T04:28:13.679Z,63.37
2016-12-12T04:29:13.659Z,63.41
2016-12-12T04:30:13.700Z,63.42
2016-12-12T04:31:13.408Z,63.44
2016-12-12T04:32:13.027Z,63.43
2016-12-12T04:33:12.644Z,63.43
2016-12-12T04:34:13.036Z,63.42
2016-12-12T04:35:12.129Z,63.42
2016-12-12T04:36:14.001Z,63.43
2016-12-12T04:37:12.095Z,63.42
2016-12-12T04:38:13.316Z,63.44
2016-12-12T04:39:12.830Z,63.42
2016-12-12T04:40:13.473Z,63.41
2016-12-12T04:41:13.317Z,63.42
2016-12-12T04:42:13.060Z,63.42
2016-12-12T04:43:13.571Z,63.42
2016-12-12T04:44:20.053Z,63.42
2016-12-12T04:45:12.578Z,63.42
2016-12-12T04:46:13.230Z,63.42
2016-12-12T04:47:11.109Z,63.41
2016-12-12T04:48:13.654Z,63.42
2016-12-12T04:49:15.016Z,63.43
2016-12-12T04:50:10.496Z,63.43
2016-12-12T04:51:13.192Z,63.41
2016-12-12T04:52:12.390Z,63.41
2016-12-12T04:53:12.370Z,63.43
2016-12-12T04:54:10.656Z,63.43
2016-12-12T04:55:11.396Z,62.53
2016-12-12T04:56:12.474Z,62.37
2016-12-12T04:57:14.211Z,62.31
2016-12-12T04:58:12.870Z,62.27
2016-12-12T04:59:12.855Z,62.26
2016-12-12T05:00:12.085Z,62.24
2016-12-12T05:01:12.702Z,62.23
2016-12-12T05:02:13.431Z,62.23
2016-12-12T05:03:11.798Z,62.24
2016-12-12T05:04:17.990Z,62.23
2016-12-12T05:05:12.605Z,62.23
2016-12-12T05:06:12.924Z,62.24
2016-12-12T05:07:12.894Z,62.21
2016-12-12T05:08:14.651Z,62.21
2016-12-12T05:09:14.350Z,62.48
2016-12-12T05:10:13.871Z,63.09
2016-12-12T05:11:12.943Z,63.24
2016-12-12T05:12:12.196Z,63.31
2016-12-12T05:13:13.064Z,63.33
2016-12-12T05:14:12.619Z,63.36
2016-12-12T05:15:13.113Z,63.38
2016-12-12T05:16:12.690Z,63.40
2016-12-12T05:17:12.960Z,63.39
2016-12-12T05:18:11.939Z,63.40
2016-12-12T05:19:12.657Z,62.49
2016-12-12T05:20:11.572Z,62.38
2016-12-12T05:21:13.069Z,62.29
2016-12-12T05:22:12.788Z,62.27
2016-12-12T05:23:11.473Z,62.28
2016-12-12T05:24:12.697Z,62.25
2016-12-12T05:25:17.906Z,62.25
2016-12-12T05:26:12.745Z,62.53
2016-12-12T05:27:10.959Z,63.14
2016-12-12T05:28:09.455Z,63.27
2016-12-12T05:29:12.895Z,63.34
2016-12-12T05:30:13.803Z,63.36
2016-12-12T05:31:14.607Z,63.39
2016-12-12T05:32:13.195Z,63.40
2016-12-12T05:33:10.922Z,63.42
2016-12-12T05:34:12.261Z,63.39
2016-12-12T05:35:13.743Z,63.41
2016-12-12T05:36:13.567Z,63.40
2016-12-12T05:37:12.644Z,63.42
2016-12-12T05:38:12.854Z,63.43
2016-12-12T05:39:13.613Z,63.43
2016-12-12T05:40:11.659Z,63.44
2016-12-12T05:41:14.205Z,62.55
2016-12-12T05:42:11.604Z,62.52
2016-12-12T05:43:11.015Z,63.21
2016-12-12T05:44:17.776Z,63.33
2016-12-12T05:45:13.347Z,63.39
2016-12-12T05:46:12.835Z,63.39
2016-12-12T05:47:12.737Z,63.41
2016-12-12T05:48:13.785Z,63.41
2016-12-12T05:49:12.948Z,63.42
2016-12-12T05:50:12.244Z,63.42
2016-12-12T05:51:12.801Z,63.43
2016-12-12T05:52:12.826Z,63.44
2016-12-12T05:53:11.120Z,63.45
2016-12-12T05:54:12.961Z,63.43
2016-12-12T05:55:12.567Z,63.44
2016-12-12T05:56:12.537Z,63.45
2016-12-12T05:57:11.274Z,63.53
2016-12-12T05:58:12.744Z,63.44
2016-12-12T05:59:13.244Z,63.43
2016-12-12T06:00:14.088Z,63.43
2016-12-12T06:01:12.128Z,63.41
2016-12-12T06:02:13.104Z,63.43
2016-12-12T06:03:10.386Z,63.59
2016-12-12T06:04:12.984Z,62.60
2016-12-12T06:05:12.157Z,63.26
2016-12-12T06:06:13.158Z,63.35
2016-12-12T06:07:13.057Z,63.38
2016-12-12T06:08:14.071Z,63.40
2016-12-12T06:09:11.056Z,63.31
2016-12-12T06:10:12.701Z,62.55
2016-12-12T06:11:12.724Z,62.71
2016-12-12T06:12:12.807Z,63.22
2016-12-12T06:13:13.437Z,63.33
2016-12-12T06:14:10.737Z,63.38
2016-12-12T06:15:12.807Z,63.39
2016-12-12T06:16:14.104Z,63.39
2016-12-12T06:17:12.259Z,63.41
2016-12-12T06:18:11.671Z,63.44
2016-12-12T06:19:12.648Z,63.42
2016-12-12T06:20:13.904Z,63.43
2016-12-12T06:21:13.115Z,63.43
2016-12-12T06:22:11.116Z,63.42
2016-12-12T06:23:12.227Z,62.85
2016-12-12T06:24:12.453Z,63.28
2016-12-12T06:25:12.702Z,63.36
2016-12-12T06:26:13.475Z,63.39
2016-12-12T06:27:12.578Z,63.40
2016-12-12T06:28:13.510Z,63.41
2016-12-12T06:29:15.124Z,63.41
2016-12-12T06:30:12.324Z,63.41
2016-12-12T06:31:13.044Z,63.41
2016-12-12T06:32:12.882Z,63.43
2016-12-12T06:33:13.022Z,63.40
2016-12-12T06:34:12.705Z,63.42
2016-12-12T06:35:13.458Z,63.41
2016-12-12T06:36:13.263Z,63.42
2016-12-12T06:37:12.935Z,63.41
2016-12-12T06:38:11.938Z,63.42
2016-12-12T06:39:13.855Z,63.43
2016-12-12T06:40:13.247Z,63.41
2016-12-12T06:41:14.102Z,63.42
2016-12-12T06:42:12.274Z,63.40
2016-12-12T06:43:13.585Z,63.41
2016-12-12T06:44:12.158Z,63.43
2016-12-12T06:45:12.704Z,63.42
2016-12-12T06:46:12.861Z,63.40
2016-12-12T06:47:12.931Z,63.41
2016-12-12T06:48:12.802Z,63.42
2016-12-12T06:49:13.251Z,63.29
2016-12-12T06:50:12.852Z,62.54
2016-12-12T06:51:13.321Z,62.65
2016-12-12T06:52:12.505Z,63.20
2016-12-12T06:53:12.640Z,63.32
2016-12-12T06:54:11.723Z,63.38
2016-12-12T06:55:13.204Z,63.38
2016-12-12T06:56:12.289Z,63.39
2016-12-12T06:57:12.333Z,63.40
2016-12-12T06:58:13.009Z,63.40
2016-12-12T06:59:12.523Z,63.40
2016-12-12T07:00:11.102Z,63.42
2016-12-12T07:01:13.367Z,63.42
2016-12-12T07:02:13.087Z,63.41
2016-12-12T07:03:12.262Z,63.42
2016-12-12T07:04:13.916Z,63.41
2016-12-12T07:05:13.525Z,63.31
2016-12-12T07:06:13.010Z,62.77
2016-12-12T07:07:12.081Z,63.27
2016-12-12T07:08:12.215Z,63.35
2016-12-12T07:09:12.291Z,63.38
2016-12-12T07:10:12.724Z,63.40
2016-12-12T07:11:12.618Z,63.41
2016-12-12T07:12:12.556Z,63.41
2016-12-12T07:13:12.920Z,63.41
2016-12-12T07:14:13.844Z,63.44
2016-12-12T07:15:11.110Z,63.54
2016-12-12T07:16:12.757Z,62.58
2016-12-12T07:17:12.788Z,62.40
2016-12-12T07:18:12.909Z,62.33
2016-12-12T07:19:12.149Z,62.34
2016-12-12T07:20:12.830Z,62.42
2016-12-12T07:21:14.512Z,62.61
2016-12-12T07:22:13.150Z,62.77
2016-12-12T07:23:12.133Z,62.91
2016-12-12T07:24:12.779Z,62.99
2016-12-12T07:25:11.731Z,63.88
2016-12-12T07:26:13.805Z,64.15
2016-12-12T07:27:12.742Z,64.35
2016-12-12T07:28:13.346Z,64.49
2016-12-12T07:29:10.008Z,64.56
2016-12-12T07:30:11.353Z,64.59
2016-12-12T07:31:12.264Z,64.66
2016-12-12T07:32:12.798Z,64.68
2016-12-12T07:33:14.426Z,64.67
2016-12-12T07:34:12.509Z,64.71
2016-12-12T07:35:10.714Z,64.73
2016-12-12T07:36:12.914Z,63.78
2016-12-12T07:37:12.985Z,63.78
2016-12-12T07:38:10.218Z,53.71
2016-12-12T07:39:15.019Z,50.36
2016-12-12T07:40:12.954Z,49.52
2016-12-12T07:41:14.828Z,51.15
2016-12-12T07:42:13.692Z,52.76
2016-12-12T07:43:12.997Z,54.02
2016-12-12T07:44:18.237Z,55.40
2016-12-12T07:45:10.784Z,55.32
2016-12-12T07:46:12.832Z,55.49
2016-12-12T07:47:14.076Z,56.08
2016-12-12T07:48:12.613Z,56.26
2016-12-12T07:49:14.845Z,56.48
2016-12-12T07:50:13.703Z,56.24
2016-12-12T07:51:13.221Z,56.22
2016-12-12T07:52:10.463Z,56.22
2016-12-12T07:53:12.687Z,56.37
2016-12-12T07:54:13.144Z,56.55
2016-12-12T07:55:09.577Z,56.64
2016-12-12T07:56:12.624Z,56.68
2016-12-12T07:57:12.767Z,56.73
2016-12-12T07:58:13.544Z,56.87
2016-12-12T07:59:12.613Z,57.01
2016-12-12T08:00:13.466Z,57.16
2016-12-12T08:01:13.409Z,57.23
2016-12-12T08:02:13.529Z,57.36
2016-12-12T08:03:10.685Z,57.45
2016-12-12T08:04:13.346Z,57.44
2016-12-12T08:05:12.325Z,57.51
2016-12-12T08:06:12.307Z,57.55
2016-12-12T08:07:14.177Z,57.55
2016-12-12T08:08:13.127Z,57.69
2016-12-12T08:09:12.159Z,57.79
2016-12-12T08:10:13.066Z,57.84
2016-12-12T08:11:13.197Z,57.86
2016-12-12T08:12:12.771Z,57.92
2016-12-12T08:13:15.222Z,58.03
2016-12-12T08:14:12.149Z,58.15
2016-12-12T08:15:12.196Z,58.18
2016-12-12T08:16:12.775Z,58.21
2016-12-12T08:17:15.305Z,58.24
2016-12-12T08:18:12.348Z,58.37
2016-12-12T08:19:13.099Z,58.41
2016-12-12T08:20:12.757Z,58.32
2016-12-12T08:21:14.528Z,57.99
2016-12-12T08:22:12.622Z,58.45
2016-12-12T08:23:12.730Z,58.60
2016-12-12T08:24:12.767Z,58.66
2016-12-12T08:25:11.806Z,58.70
2016-12-12T08:26:13.378Z,58.82
2016-12-12T08:27:12.817Z,58.91
2016-12-12T08:28:13.220Z,58.92
2016-12-12T08:29:12.738Z,58.99
2016-12-12T08:30:13.317Z,59.06
2016-12-12T08:31:10.166Z,59.10
2016-12-12T08:32:12.350Z,59.15
2016-12-12T08:33:13.132Z,59.17
2016-12-12T08:34:11.169Z,59.12
2016-12-12T08:35:12.775Z,58.57
2016-12-12T08:36:13.384Z,59.14
2016-12-12T08:37:12.838Z,59.24
2016-12-12T08:38:11.559Z,59.34
2016-12-12T08:39:13.208Z,58.56
2016-12-12T08:40:12.457Z,58.47
2016-12-12T08:41:12.641Z,58.43
2016-12-12T08:42:12.687Z,58.50
2016-12-12T08:43:13.227Z,58.53
2016-12-12T08:44:13.153Z,58.50
2016-12-12T08:45:12.842Z,59.31
2016-12-12T08:46:12.942Z,59.49
2016-12-12T08:47:11.921Z,59.62
2016-12-12T08:48:13.742Z,59.67
2016-12-12T08:49:13.115Z,59.72
2016-12-12T08:50:12.910Z,59.77
2016-12-12T08:51:12.993Z,59.83
2016-12-12T08:52:13.055Z,59.86
2016-12-12T08:53:12.159Z,59.90
2016-12-12T08:54:12.270Z,59.95
2016-12-12T08:55:09.795Z,59.98
2016-12-12T08:56:14.600Z,59.98
2016-12-12T08:57:12.583Z,59.99
2016-12-12T08:58:13.510Z,60.03
2016-12-12T08:59:12.928Z,60.06
2016-12-12T09:00:13.023Z,60.13
2016-12-12T09:01:12.104Z,60.13
2016-12-12T09:02:13.119Z,60.16
2016-12-12T09:03:12.075Z,60.16
2016-12-12T09:04:19.007Z,60.22
2016-12-12T09:05:12.719Z,60.21
2016-12-12T09:06:13.332Z,60.25
2016-12-12T09:07:10.549Z,60.33
2016-12-12T09:08:12.719Z,59.47
2016-12-12T09:09:12.554Z,60.19
2016-12-12T09:10:13.148Z,60.28
2016-12-12T09:11:12.225Z,60.33
2016-12-12T09:12:12.994Z,60.40
2016-12-12T09:13:13.084Z,60.40
2016-12-12T09:14:13.487Z,60.41
2016-12-12T09:15:13.419Z,60.42
2016-12-12T09:16:14.028Z,60.47
2016-12-12T09:17:14.060Z,60.47
2016-12-12T09:18:12.577Z,59.71
2016-12-12T09:19:14.356Z,60.38
2016-12-12T09:20:12.268Z,60.44
2016-12-12T09:21:12.826Z,60.51
2016-12-12T09:22:12.809Z,60.57
2016-12-12T09:23:13.397Z,60.59
2016-12-12T09:24:13.290Z,60.59
2016-12-12T09:25:13.784Z,60.49
2016-12-12T09:26:12.989Z,59.82
2016-12-12T09:27:13.812Z,59.66
2016-12-12T09:28:13.469Z,59.60
2016-12-12T09:29:12.986Z,59.61
2016-12-12T09:30:13.654Z,59.62
2016-12-12T09:31:14.229Z,59.61
2016-12-12T09:32:14.655Z,59.61
2016-12-12T09:33:14.408Z,59.94
2016-12-12T09:34:12.957Z,60.47
2016-12-12T09:35:12.987Z,60.61
2016-12-12T09:36:12.623Z,60.69
2016-12-12T09:37:13.298Z,60.74
2016-12-12T09:38:13.008Z,60.79
2016-12-12T09:39:12.630Z,60.82
2016-12-12T09:40:13.232Z,60.81
2016-12-12T09:41:12.850Z,60.84
2016-12-12T09:42:13.586Z,60.86
2016-12-12T09:43:11.536Z,60.86
2016-12-12T09:44:13.183Z,60.22
2016-12-12T09:45:14.021Z,60.77
2016-12-12T09:46:13.156Z,60.86
2016-12-12T09:47:10.385Z,60.91
2016-12-12T09:48:13.177Z,60.90
2016-12-12T09:49:12.286Z,60.93
2016-12-12T09:50:13.066Z,60.95
2016-12-12T09:51:12.518Z,60.97
2016-12-12T09:52:12.563Z,60.96
2016-12-12T09:53:11.628Z,60.87
2016-12-12T09:54:19.771Z,60.14
2016-12-12T09:55:11.806Z,60.01
2016-12-12T09:56:12.837Z,59.98
2016-12-12T09:57:12.838Z,59.92
2016-12-12T09:58:13.273Z,59.90
2016-12-12T09:59:13.864Z,59.91
2016-12-12T10:00:11.946Z,59.93
2016-12-12T10:01:11.145Z,59.92
2016-12-12T10:02:12.800Z,60.75
2016-12-12T10:03:12.770Z,60.92
2016-12-12T10:04:13.138Z,60.98
2016-12-12T10:05:12.274Z,61.02
2016-12-12T10:06:13.077Z,61.06
2016-12-12T10:07:12.942Z,61.09
2016-12-12T10:08:12.617Z,61.10
2016-12-12T10:09:12.684Z,61.13
2016-12-12T10:10:12.657Z,61.15
2016-12-12T10:11:13.287Z,61.12
2016-12-12T10:12:12.209Z,61.14
2016-12-12T10:13:12.719Z,61.15
2016-12-12T10:14:12.653Z,61.16
2016-12-12T10:15:13.190Z,61.17
2016-12-12T10:16:13.928Z,61.19
2016-12-12T10:17:13.231Z,61.21
2016-12-12T10:18:13.032Z,61.23
2016-12-12T10:19:12.149Z,61.22
2016-12-12T10:20:11.071Z,61.21
2016-12-12T10:21:12.346Z,60.35
2016-12-12T10:22:12.759Z,60.22
2016-12-12T10:23:13.859Z,60.31
2016-12-12T10:24:15.743Z,60.98
2016-12-12T10:25:12.747Z,61.09
2016-12-12T10:26:14.830Z,61.17
2016-12-12T10:27:13.706Z,61.21
2016-12-12T10:28:13.978Z,61.23
2016-12-12T10:29:12.605Z,61.25
2016-12-12T10:30:12.699Z,61.27
2016-12-12T10:31:13.319Z,61.28
2016-12-12T10:32:12.444Z,61.29
2016-12-12T10:33:12.348Z,61.28
2016-12-12T10:34:13.139Z,61.26
2016-12-12T10:35:12.142Z,61.30
2016-12-12T10:36:12.311Z,61.30
2016-12-12T10:37:12.983Z,61.31
2016-12-12T10:38:13.015Z,61.31
2016-12-12T10:39:12.603Z,61.31
2016-12-12T10:40:12.731Z,61.30
2016-12-12T10:41:13.295Z,61.31
2016-12-12T10:42:13.028Z,61.32
2016-12-12T10:43:12.790Z,61.34
2016-12-12T10:44:13.294Z,61.34
2016-12-12T10:45:13.080Z,61.36
2016-12-12T10:46:09.715Z,61.36
2016-12-12T10:47:13.223Z,61.36
2016-12-12T10:48:14.109Z,61.36
2016-12-12T10:49:11.194Z,61.38
2016-12-12T10:50:13.103Z,61.37
2016-12-12T10:51:09.358Z,61.38
2016-12-12T10:52:12.905Z,61.36
2016-12-12T10:53:12.895Z,61.37
2016-12-12T10:54:13.026Z,61.38
2016-12-12T10:55:12.001Z,61.38
2016-12-12T10:56:12.031Z,61.39
2016-12-12T10:57:12.184Z,61.39
2016-12-12T10:58:12.324Z,61.41
2016-12-12T10:59:11.324Z,61.41
2016-12-12T11:00:13.835Z,61.43
2016-12-12T11:01:14.497Z,61.41
2016-12-12T11:02:09.836Z,61.41
2016-12-12T11:03:12.794Z,61.42
2016-12-12T11:04:12.854Z,61.42
2016-12-12T11:05:14.642Z,61.43
2016-12-12T11:06:13.190Z,61.43
2016-12-12T11:07:12.055Z,61.43
2016-12-12T11:08:18.620Z,61.43
2016-12-12T11:09:12.763Z,61.44
2016-12-12T11:10:12.889Z,61.45
2016-12-12T11:11:12.810Z,61.44
2016-12-12T11:12:14.465Z,61.44
2016-12-12T11:13:12.538Z,61.45
2016-12-12T11:14:14.221Z,61.45
2016-12-12T11:15:11.236Z,61.39
2016-12-12T11:16:12.306Z,60.59
2016-12-12T11:17:12.765Z,60.45
2016-12-12T11:18:13.145Z,60.39
2016-12-12T11:19:13.137Z,60.54
2016-12-12T11:20:11.335Z,61.19
2016-12-12T11:21:12.274Z,60.47
2016-12-12T11:22:13.196Z,60.39
2016-12-12T11:23:14.716Z,60.36
2016-12-12T11:24:12.925Z,60.37
2016-12-12T11:25:14.386Z,60.61
2016-12-12T11:26:13.101Z,61.19
2016-12-12T11:27:12.483Z,61.32
2016-12-12T11:28:12.580Z,61.38
2016-12-12T11:29:13.030Z,61.41
2016-12-12T11:30:10.463Z,61.45
2016-12-12T11:31:13.114Z,61.46
2016-12-12T11:32:13.823Z,61.49
2016-12-12T11:33:12.784Z,61.48
2016-12-12T11:34:12.809Z,61.48
2016-12-12T11:35:13.418Z,61.50
2016-12-12T11:36:12.988Z,61.50
2016-12-12T11:37:14.275Z,61.51
2016-12-12T11:38:13.300Z,61.51
2016-12-12T11:39:14.225Z,61.51
2016-12-12T11:40:11.523Z,60.67
2016-12-12T11:41:14.250Z,60.51
2016-12-12T11:42:11.333Z,60.44
2016-12-12T11:43:12.877Z,60.41
2016-12-12T11:44:12.984Z,60.37
2016-12-12T11:45:12.799Z,60.37
2016-12-12T11:46:10.932Z,60.38
2016-12-12T11:47:13.021Z,61.21
2016-12-12T11:48:12.016Z,61.36
2016-12-12T11:49:12.708Z,61.42
2016-12-12T11:50:13.189Z,61.46
2016-12-12T11:51:13.159Z,61.49
2016-12-12T11:52:12.729Z,61.50
2016-12-12T11:53:12.815Z,61.53
2016-12-12T11:54:11.002Z,61.55
2016-12-12T11:55:12.189Z,61.53
2016-12-12T11:56:12.778Z,61.53
2016-12-12T11:57:13.368Z,61.54
2016-12-12T11:58:13.466Z,61.54
2016-12-12T11:59:13.098Z,61.55
2016-12-12T12:00:12.008Z,61.54
2016-12-12T12:01:12.661Z,61.56
2016-12-12T12:02:14.441Z,61.56
2016-12-12T12:03:13.074Z,61.57
2016-12-12T12:04:12.610Z,61.56
2016-12-12T12:05:13.168Z,61.56
2016-12-12T12:06:12.190Z,61.55
2016-12-12T12:07:13.020Z,61.56
2016-12-12T12:08:13.703Z,61.57
2016-12-12T12:09:13.353Z,61.58
2016-12-12T12:10:12.985Z,61.58
2016-12-12T12:11:12.575Z,61.57
2016-12-12T12:12:10.134Z,61.57
2016-12-12T12:13:12.294Z,61.58
2016-12-12T12:14:12.339Z,61.57
2016-12-12T12:15:13.194Z,61.58
2016-12-12T12:16:12.955Z,61.58
2016-12-12T12:17:12.686Z,61.58
2016-12-12T12:18:13.437Z,61.58
2016-12-12T12:19:13.287Z,61.59
2016-12-12T12:20:12.259Z,61.59
2016-12-12T12:21:12.239Z,61.61
2016-12-12T12:22:10.178Z,61.62
2016-12-12T12:23:10.639Z,61.62
2016-12-12T12:24:12.509Z,61.60
2016-12-12T12:25:13.218Z,61.59
2016-12-12T12:26:10.594Z,61.60
2016-12-12T12:27:13.486Z,61.59
2016-12-12T12:28:12.471Z,61.59
2016-12-12T12:29:11.162Z,61.61
2016-12-12T12:30:12.242Z,61.61
2016-12-12T12:31:12.275Z,61.60
2016-12-12T12:32:10.933Z,61.60
2016-12-12T12:33:12.800Z,61.61
2016-12-12T12:34:11.816Z,61.59
2016-12-12T12:35:13.607Z,61.60
2016-12-12T12:36:16.260Z,61.60
2016-12-12T12:37:10.180Z,61.61
2016-12-12T12:38:14.297Z,61.60
2016-12-12T12:39:13.927Z,61.60
2016-12-12T12:40:12.105Z,61.59
2016-12-12T12:41:12.638Z,61.60
2016-12-12T12:42:12.966Z,61.58
2016-12-12T12:43:13.978Z,61.58
2016-12-12T12:44:12.787Z,61.59
2016-12-12T12:45:12.830Z,61.59
2016-12-12T12:46:13.431Z,61.60
2016-12-12T12:47:12.568Z,61.60
2016-12-12T12:48:13.136Z,61.61
2016-12-12T12:49:12.844Z,61.60
2016-12-12T12:50:13.567Z,61.61
2016-12-12T12:51:11.130Z,61.61
2016-12-12T12:52:12.864Z,61.62